Time;durP1;ratioP1;P1;durP2;ratioP2;P2;SDS_P1;SDS_P2;PMS_P1;PMS_P2;Temp;Humidity;BMP_temperature;BMP_pressure;BME280_temperature;BME280_humidity;BME280_pressure;Samples;Min_cycle;Max_cycle;Signal;HPM_P1;HPM_P2
2022/09/23 00:00:00;;;;;;;1999.90;999.90;;;13.90;99.90;;;;;;4992481;28;20058;-75
2022/09/23 00:02:26;;;;;;;1999.90;999.90;;;13.90;99.90;;;;;;4992426;28;20030;-79
2022/09/23 00:04:51;;;;;;;1999.90;999.90;;;13.90;99.90;;;;;;4990198;28;20129;-75
2022/09/23 00:07:17;;;;;;;1999.90;999.90;;;13.80;99.90;;;;;;4992763;28;20081;-79
2022/09/23 00:09:42;;;;;;;1999.90;999.90;;;13.80;99.90;;;;;;4992541;28;20026;-79
2022/09/23 00:12:09;;;;;;;1999.90;999.90;;;13.80;99.90;;;;;;4992047;28;20102;-79
2022/09/23 00:14:37;;;;;;;1999.90;999.90;;;13.70;99.90;;;;;;4993645;28;20053;-79
2022/09/23 00:17:03;;;;;;;1999.90;999.90;;;13.70;99.90;;;;;;4995858;28;20386;-76
2022/09/23 00:19:28;;;;;;;1999.90;999.90;;;13.70;99.90;;;;;;4996073;28;20041;-76
2022/09/23 00:21:55;;;;;;;1999.90;999.90;;;13.60;99.90;;;;;;4996402;28;20029;-75
2022/09/23 00:24:22;;;;;;;1999.90;999.90;;;13.60;99.90;;;;;;4996240;28;20019;-75
2022/09/23 00:26:47;;;;;;;1999.90;999.90;;;13.60;99.90;;;;;;4996208;28;20018;-75
2022/09/23 00:29:14;;;;;;;1999.90;999.90;;;13.60;99.90;;;;;;4996492;28;20034;-75
2022/09/23 00:31:41;;;;;;;1999.90;999.90;;;13.50;99.90;;;;;;4995069;28;20065;-75
2022/09/23 00:34:09;;;;;;;1999.90;999.90;;;13.50;99.90;;;;;;4996023;28;20037;-76
2022/09/23 00:36:35;;;;;;;1999.90;999.90;;;13.50;99.90;;;;;;4994629;28;20493;-78
2022/09/23 00:39:02;;;;;;;1999.90;999.90;;;13.50;99.90;;;;;;4992754;28;20041;-76
2022/09/23 00:41:28;;;;;;;1999.90;999.90;;;13.40;99.90;;;;;;4996114;28;20101;-79
2022/09/23 00:43:57;;;;;;;1999.90;999.90;;;13.40;99.90;;;;;;4996140;28;20109;-76
2022/09/23 00:46:38;;;;;;;1999.90;999.90;;;13.40;99.90;;;;;;4994557;28;20497;-75
2022/09/23 00:49:23;;;;;;;1999.90;999.90;;;13.40;99.90;;;;;;4995809;28;20019;-79
2022/09/23 00:51:57;;;;;;;1999.90;999.90;;;13.40;99.90;;;;;;4995983;28;20512;-79
2022/09/23 00:54:26;;;;;;;1999.90;999.90;;;13.40;99.90;;;;;;4995904;28;20037;-76
2022/09/23 00:56:52;;;;;;;1999.90;999.90;;;13.40;99.90;;;;;;4994422;28;20018;-75
2022/09/23 00:59:19;;;;;;;1999.90;999.90;;;13.30;99.90;;;;;;4996001;28;20401;-76
2022/09/23 01:01:45;;;;;;;1999.90;999.90;;;13.30;99.90;;;;;;4995490;28;20061;-75
2022/09/23 01:04:13;;;;;;;1999.90;999.90;;;13.40;99.90;;;;;;4995881;28;20449;-79
2022/09/23 01:06:39;;;;;;;1999.90;999.90;;;13.40;99.90;;;;;;4994638;28;20077;-75
2022/09/23 01:09:05;;;;;;;1999.90;999.90;;;13.30;99.90;;;;;;4995717;28;20072;-76
2022/09/23 01:11:40;;;;;;;1999.90;999.90;;;13.30;99.90;;;;;;4995516;28;20026;-75
2022/09/23 01:14:08;;;;;;;1999.90;999.90;;;13.30;99.90;;;;;;4995463;28;20536;-75
2022/09/23 01:16:57;;;;;;;1999.90;999.90;;;13.30;99.90;;;;;;4993202;28;20513;-78
2022/09/23 01:20:04;;;;;;;1999.90;999.90;;;13.20;99.90;;;;;;4995396;28;20587;-79
2022/09/23 01:22:45;;;;;;;1999.90;999.90;;;13.20;99.90;;;;;;4995141;28;20034;-79
2022/09/23 01:25:34;;;;;;;1999.90;999.90;;;13.20;99.90;;;;;;4995303;28;20545;-79
2022/09/23 01:28:34;;;;;;;1999.90;999.90;;;13.10;99.90;;;;;;4995161;28;20058;-75
2022/09/23 01:31:23;;;;;;;1999.90;999.90;;;13.10;99.90;;;;;;4993907;28;20470;-79
2022/09/23 01:34:14;;;;;;;1999.90;999.90;;;13.00;99.90;;;;;;4993539;28;20433;-76
2022/09/23 01:36:55;;;;;;;1999.90;999.90;;;13.00;99.90;;;;;;4995010;28;20050;-78
2022/09/23 01:39:44;;;;;;;1999.90;999.90;;;13.00;99.90;;;;;;4991345;28;20102;-75
2022/09/23 01:42:24;;;;;;;1999.90;999.90;;;13.00;99.90;;;;;;4993371;28;20482;-75
2022/09/23 01:45:16;;;;;;;1999.90;999.90;;;13.00;99.90;;;;;;4994920;28;20473;-79
2022/09/23 01:47:47;;;;;;;1999.90;999.90;;;13.00;99.90;;;;;;4994753;28;20018;-75
2022/09/23 01:53:11;;;;;;;1999.90;999.90;;;13.10;99.90;;;;;;4995090;28;20401;-75
2022/09/23 01:55:42;;;;;;;1999.90;999.90;;;13.10;99.90;;;;;;4994859;28;20037;-76
2022/09/23 01:58:13;;;;;;;1999.90;999.90;;;13.10;99.90;;;;;;4993169;28;20026;-79
2022/09/23 02:00:46;;;;;;;1999.90;999.90;;;13.10;99.90;;;;;;4994495;28;20034;-75
2022/09/23 02:03:14;;;;;;;;;;;13.10;99.90;;;;;;4994747;28;20061;-75
2022/09/23 02:05:49;;;;;;;1999.90;999.90;;;13.10;99.90;;;;;;4994412;28;19936;-75
2022/09/23 02:08:23;;;;;;;1999.90;999.90;;;13.10;99.90;;;;;;4993775;28;20035;-79
2022/09/23 02:10:57;;;;;;;1999.90;999.90;;;13.10;99.90;;;;;;4994234;28;20031;-79
2022/09/23 02:13:38;;;;;;;1999.90;999.90;;;13.10;99.90;;;;;;4994482;28;20070;-75
2022/09/23 02:16:12;;;;;;;1999.90;999.90;;;13.20;99.90;;;;;;4992518;28;21522;-75
2022/09/23 02:18:48;;;;;;;1999.90;999.90;;;13.20;99.90;;;;;;4994017;28;20125;-75
2022/09/23 02:21:16;;;;;;;1999.90;999.90;;;13.20;99.90;;;;;;4992499;28;20045;-76
2022/09/23 02:23:47;;;;;;;1999.90;999.90;;;13.20;99.90;;;;;;4994062;28;20053;-75
2022/09/23 02:26:37;;;;;;;1999.90;999.90;;;13.20;99.90;;;;;;4994089;28;20025;-75
2022/09/23 02:29:09;;;;;;;1999.90;999.90;;;13.20;99.90;;;;;;4994078;28;20027;-75
2022/09/23 02:31:52;;;;;;;1999.90;999.90;;;13.20;99.90;;;;;;4994381;28;20030;-75
2022/09/23 02:34:27;;;;;;;;;;;13.30;99.90;;;;;;4993100;28;20030;-79
2022/09/23 02:37:21;;;;;;;1999.90;999.90;;;13.30;99.90;;;;;;4992705;28;19921;-76
2022/09/23 02:39:50;;;;;;;1999.90;999.90;;;13.30;99.90;;;;;;4992501;28;20061;-79
2022/09/23 02:42:22;;;;;;;1999.90;999.90;;;13.30;99.90;;;;;;4973028;28;20410;-75
2022/09/23 02:44:47;;;;;;;1999.90;999.90;;;13.30;99.90;;;;;;4974620;28;20046;-75
2022/09/23 02:47:13;;;;;;;1999.90;999.90;;;13.30;99.90;;;;;;4974313;28;20414;-79
2022/09/23 02:49:39;;;;;;;1999.90;999.90;;;13.20;99.90;;;;;;4974445;28;20093;-79
2022/09/23 02:52:06;;;;;;;1999.90;999.90;;;13.20;99.90;;;;;;4974066;28;20073;-75
2022/09/23 02:54:33;;;;;;;1999.90;999.90;;;13.20;99.90;;;;;;4972935;28;20046;-75
2022/09/23 02:57:01;;;;;;;1999.90;999.90;;;13.10;99.90;;;;;;4972790;28;20494;-75
2022/09/23 02:59:28;;;;;;;1999.90;999.90;;;13.20;99.90;;;;;;4973881;28;20178;-79
2022/09/23 03:02:16;;;;;;;1999.90;999.90;;;13.10;99.90;;;;;;4974006;28;20035;-78
2022/09/23 03:05:22;;;;;;;1999.90;999.90;;;13.10;99.90;;;;;;4974045;28;20409;-78
2022/09/23 03:08:12;;;;;;;1999.90;999.90;;;13.10;99.90;;;;;;4973173;28;20030;-75
2022/09/23 03:10:53;;;;;;;1999.90;999.90;;;13.10;99.90;;;;;;4972604;28;20490;-75
2022/09/23 03:13:34;;;;;;;1999.90;999.90;;;13.20;99.90;;;;;;4988778;28;20031;-75
2022/09/23 03:16:13;;;;;;;1999.90;999.90;;;13.20;99.90;;;;;;4975755;28;20030;-76
2022/09/23 03:18:59;;;;;;;1999.90;999.90;;;13.20;99.90;;;;;;4992344;28;20054;-79
2022/09/23 03:21:34;;;;;;;1999.90;999.90;;;13.30;99.90;;;;;;5001578;28;20053;-76
2022/09/23 03:24:03;;;;;;;1999.90;999.90;;;13.20;99.90;;;;;;4991511;28;20029;-75
2022/09/23 03:26:33;;;;;;;1999.90;999.90;;;13.20;99.90;;;;;;4993079;28;20061;-75
2022/09/23 03:29:02;;;;;;;1999.90;999.90;;;13.20;99.90;;;;;;4991469;28;20401;-75
2022/09/23 03:31:28;;;;;;;1999.90;999.90;;;13.20;99.90;;;;;;4993244;28;20033;-75
2022/09/23 03:33:57;;;;;;;1999.90;999.90;;;13.10;99.90;;;;;;4992744;28;20022;-75
2022/09/23 03:39:31;;;;;;;1999.90;999.90;;;13.10;99.90;;;;;;4988341;28;20033;-75
2022/09/23 03:42:01;;;;;;;1999.90;999.90;;;13.10;99.90;;;;;;4972106;28;20045;-75
2022/09/23 03:44:28;;;;;;;1999.90;999.90;;;13.00;99.90;;;;;;4973365;28;20031;-79
2022/09/23 03:46:57;;;;;;;1999.90;999.90;;;13.00;99.90;;;;;;4973054;28;20085;-75
2022/09/23 03:49:31;;;;;;;1999.90;999.90;;;13.00;99.90;;;;;;4971103;28;20464;-75
2022/09/23 03:51:58;;;;;;;1999.90;999.90;;;13.00;99.90;;;;;;4973278;28;20037;-79
2022/09/23 03:54:28;;;;;;;1999.90;999.90;;;13.00;99.90;;;;;;4973299;28;20033;-79
2022/09/23 03:56:57;;;;;;;1999.90;999.90;;;13.00;99.90;;;;;;4973182;28;20110;-75
2022/09/23 03:59:24;;;;;;;1999.90;999.90;;;12.90;99.90;;;;;;4973362;28;20198;-75
2022/09/23 04:01:49;;;;;;;1999.90;999.90;;;12.80;99.90;;;;;;4972881;28;20041;-75
2022/09/23 04:04:15;;;;;;;1999.90;999.90;;;12.80;99.90;;;;;;4971726;28;20027;-75
2022/09/23 04:06:41;;;;;;;1999.90;999.90;;;12.70;99.90;;;;;;4972946;28;20514;-78
2022/09/23 04:09:07;;;;;;;1999.90;999.90;;;12.70;99.90;;;;;;4972271;28;20062;-75
2022/09/23 04:11:33;;;;;;;1999.90;999.90;;;12.60;99.90;;;;;;4973099;28;20034;-75
2022/09/23 04:13:59;;;;;;;1999.90;999.90;;;12.60;99.90;;;;;;4987957;28;20494;-75
2022/09/23 04:16:24;;;;;;;1999.90;999.90;;;12.50;99.90;;;;;;4977480;28;20034;-75
2022/09/23 04:18:50;;;;;;;1999.90;999.90;;;12.60;99.90;;;;;;4992255;28;20026;-75
2022/09/23 04:21:16;;;;;;;1999.90;999.90;;;12.60;99.90;;;;;;4992110;28;20034;-75
2022/09/23 04:23:42;;;;;;;1999.90;999.90;;;12.60;99.90;;;;;;4990989;28;20105;-75
2022/09/23 04:26:07;;;;;;;1999.90;999.90;;;12.60;99.90;;;;;;4992347;28;20117;-75
2022/09/23 04:28:33;;;;;;;1999.90;999.90;;;12.60;99.90;;;;;;4990965;28;20080;-79
2022/09/23 04:31:03;;;;;;;1999.90;999.90;;;12.60;99.90;;;;;;4991009;28;20037;-79
2022/09/23 04:33:29;;;;;;;1999.90;999.90;;;12.60;99.90;;;;;;4990815;28;20038;-79
2022/09/23 04:35:55;;;;;;;1999.90;999.90;;;12.60;99.90;;;;;;4992297;28;20026;-75
2022/09/23 04:38:20;;;;;;;1999.90;999.90;;;12.60;99.90;;;;;;4990741;28;20117;-79
2022/09/23 04:40:47;;;;;;;1999.90;999.90;;;12.60;99.90;;;;;;4974312;28;20130;-75
2022/09/23 04:43:14;;;;;;;1999.90;999.90;;;12.60;99.90;;;;;;4972878;28;20055;-76
2022/09/23 04:45:43;;;;;;;1999.90;999.90;;;12.60;99.90;;;;;;4973038;28;20026;-79
2022/09/23 04:48:10;;;;;;;1999.90;999.90;;;12.60;99.90;;;;;;4971074;28;20015;-79
2022/09/23 04:50:36;;;;;;;1999.90;999.90;;;12.60;99.90;;;;;;4972694;28;20031;-79
2022/09/23 04:53:03;;;;;;;1999.90;999.90;;;12.60;99.90;;;;;;4972810;28;20030;-76
2022/09/23 04:55:29;;;;;;;1999.90;999.90;;;12.60;99.90;;;;;;4973079;28;20027;-76
2022/09/23 04:57:55;;;;;;;1999.90;999.90;;;12.70;99.90;;;;;;4986386;28;20654;-79
2022/09/23 05:00:22;;;;;;;1999.90;999.90;;;12.70;99.90;;;;;;4993837;28;20033;-76
2022/09/23 05:02:49;;;;;;;1999.90;999.90;;;12.70;99.90;;;;;;4994615;28;20540;-79
2022/09/23 05:05:19;;;;;;;1999.90;999.90;;;12.60;99.90;;;;;;4993928;28;20050;-75
2022/09/23 05:07:44;;;;;;;1999.90;999.90;;;12.60;99.90;;;;;;4995330;28;20019;-75
2022/09/23 05:10:10;;;;;;;1999.90;999.90;;;12.50;99.90;;;;;;4994609;28;20444;-76
2022/09/23 05:12:35;;;;;;;1999.90;999.90;;;12.50;99.90;;;;;;4995367;28;20030;-76
2022/09/23 05:15:01;;;;;;;1999.90;999.90;;;12.50;99.90;;;;;;4993862;28;20112;-79
2022/09/23 05:17:27;;;;;;;1999.90;999.90;;;12.50;99.90;;;;;;4981196;28;20031;-79
2022/09/23 05:19:53;;;;;;;1999.90;999.90;;;12.50;99.90;;;;;;4975626;28;20482;-76
2022/09/23 05:22:18;;;;;;;1999.90;999.90;;;12.50;99.90;;;;;;4975576;28;20038;-75
2022/09/23 05:24:44;;;;;;;1999.90;999.90;;;12.60;99.90;;;;;;4975688;28;20098;-76
2022/09/23 05:27:10;;;;;;;1999.90;999.90;;;12.60;99.90;;;;;;4975795;28;20023;-75
2022/09/23 05:29:37;;;;;;;1999.90;999.90;;;12.70;99.90;;;;;;4975786;28;20049;-79
2022/09/23 05:32:03;;;;;;;1999.90;999.90;;;12.80;99.90;;;;;;4975251;28;20122;-75
2022/09/23 05:34:28;;;;;;;1999.90;999.90;;;12.80;99.90;;;;;;4983766;28;20042;-76
2022/09/23 05:36:54;;;;;;;1999.90;999.90;;;12.80;99.90;;;;;;4985410;28;20062;-79
2022/09/23 05:39:20;;;;;;;1999.90;999.90;;;12.80;99.90;;;;;;4990331;28;20323;-79
2022/09/23 05:41:45;;;;;;;1999.90;999.90;;;12.80;99.90;;;;;;4982553;28;20494;-79
2022/09/23 05:44:11;;;;;;;1999.90;999.90;;;12.80;99.90;;;;;;4993540;28;20018;-76
2022/09/23 05:46:37;;;;;;;1999.90;999.90;;;12.90;99.90;;;;;;4994493;28;20077;-76
2022/09/23 05:49:04;;;;;;;1999.90;999.90;;;12.90;99.90;;;;;;4994345;28;20390;-79
2022/09/23 05:51:31;;;;;;;1999.90;999.90;;;12.90;99.90;;;;;;4993371;28;20028;-79
2022/09/23 05:53:57;;;;;;;1999.90;999.90;;;12.90;99.90;;;;;;4987016;28;20038;-79
2022/09/23 05:56:25;;;;;;;1999.90;999.90;;;13.00;99.90;;;;;;4987773;28;20011;-79
2022/09/23 05:58:53;;;;;;;1999.90;999.90;;;13.00;99.90;;;;;;4993800;28;20104;-76
2022/09/23 06:01:23;;;;;;;1999.90;999.90;;;13.10;99.90;;;;;;4993289;28;20018;-75
2022/09/23 06:03:50;;;;;;;1999.90;999.90;;;13.00;99.90;;;;;;4990708;28;20026;-79
2022/09/23 06:06:19;;;;;;;1999.90;999.90;;;13.00;99.90;;;;;;4988061;28;20097;-75
2022/09/23 06:08:46;;;;;;;1999.90;999.90;;;13.00;99.90;;;;;;4984549;28;20658;-79
2022/09/23 06:11:12;;;;;;;1999.90;999.90;;;13.10;99.90;;;;;;4987020;28;20379;-76
2022/09/23 06:13:39;;;;;;;1999.90;999.90;;;13.10;99.90;;;;;;4991574;28;20045;-75
2022/09/23 06:16:07;;;;;;;1999.90;999.90;;;13.20;99.90;;;;;;4987500;28;20027;-79
2022/09/23 06:18:34;;;;;;;1999.90;999.90;;;13.20;99.90;;;;;;4985560;28;20050;-79
2022/09/23 06:21:02;;;;;;;1999.90;999.90;;;13.30;99.90;;;;;;4989243;28;20030;-79
2022/09/23 06:23:28;;;;;;;1999.90;999.90;;;13.30;99.90;;;;;;4981800;28;20866;-76
2022/09/23 06:25:59;;;;;;;1999.90;999.90;;;13.40;99.90;;;;;;4988607;28;20397;-76
2022/09/23 06:28:31;;;;;;;1999.90;999.90;;;13.50;99.90;;;;;;4990119;28;20018;-76
2022/09/23 06:31:02;;;;;;;1999.90;999.90;;;13.50;99.90;;;;;;4990868;28;20118;-76
2022/09/23 06:33:29;;;;;;;1999.90;999.90;;;13.50;99.90;;;;;;4991298;28;20014;-75
2022/09/23 06:35:56;;;;;;;1999.90;999.90;;;13.60;99.90;;;;;;4990476;28;20037;-76
2022/09/23 06:38:22;;;;;;;1999.90;999.90;;;13.60;99.90;;;;;;4991784;28;20022;-76
2022/09/23 06:40:53;;;;;;;1999.90;999.90;;;13.50;99.90;;;;;;4986278;28;20038;-79
2022/09/23 06:43:21;;;;;;;1999.90;999.90;;;13.60;99.90;;;;;;4982485;28;20033;-76
2022/09/23 06:45:47;;;;;;;1999.90;999.90;;;13.60;99.90;;;;;;4991411;28;20486;-76
2022/09/23 06:48:12;;;;;;;1999.90;999.90;;;13.60;99.90;;;;;;4991311;28;20014;-79
2022/09/23 06:50:38;;;;;;;1999.90;999.90;;;13.60;99.90;;;;;;4988514;28;20490;-76
2022/09/23 06:53:03;;;;;;;1999.90;999.90;;;13.60;99.90;;;;;;4989484;28;20157;-76
2022/09/23 06:55:29;;;;;;;1999.90;999.90;;;13.60;99.90;;;;;;4991124;28;20038;-79
2022/09/23 06:57:57;;;;;;;1999.90;999.90;;;13.70;99.90;;;;;;4988777;28;20039;-76
2022/09/23 07:00:23;;;;;;;1999.90;999.90;;;13.80;99.90;;;;;;4990062;28;20405;-79
2022/09/23 07:02:49;;;;;;;1999.90;999.90;;;13.90;99.90;;;;;;4990035;28;20034;-75
2022/09/23 07:05:16;;;;;;;1999.90;999.90;;;14.00;99.90;;;;;;4986111;28;20050;-76
2022/09/23 07:07:42;;;;;;;1999.90;999.90;;;14.10;99.90;;;;;;4987583;28;20165;-79
2022/09/23 07:10:09;;;;;;;1999.90;999.90;;;14.20;99.90;;;;;;4986226;28;20121;-79
2022/09/23 07:12:35;;;;;;;1999.90;999.90;;;14.30;99.90;;;;;;4980022;28;20131;-79
2022/09/23 07:15:01;;;;;;;1999.90;999.90;;;14.30;99.90;;;;;;4982973;28;20129;-76
2022/09/23 07:17:27;;;;;;;1999.90;999.90;;;14.40;99.90;;;;;;4984934;28;20030;-76
2022/09/23 07:19:53;;;;;;;1999.90;999.90;;;14.50;99.80;;;;;;4990366;28;20097;-79
2022/09/23 07:22:20;;;;;;;1999.90;999.90;;;14.60;99.60;;;;;;4990052;28;20553;-79
2022/09/23 07:24:46;;;;;;;1999.90;999.90;;;14.50;99.70;;;;;;4990693;28;20034;-76
2022/09/23 07:27:16;;;;;;;1999.90;999.90;;;14.60;99.60;;;;;;4987687;28;20565;-76
2022/09/23 07:29:48;;;;;;;1999.90;999.90;;;14.60;99.60;;;;;;4989384;28;20109;-76
2022/09/23 07:32:14;;;;;;;1999.90;999.90;;;14.60;99.70;;;;;;4989080;28;20160;-76
2022/09/23 07:34:39;;;;;;;1999.90;999.90;;;14.60;99.60;;;;;;4971125;28;20357;-76
2022/09/23 07:37:05;;;;;;;1999.90;999.90;;;14.70;99.40;;;;;;4990229;28;20030;-79
2022/09/23 07:39:30;;;;;;;1999.90;999.90;;;14.60;99.30;;;;;;4991050;28;20552;-79
2022/09/23 07:41:56;;;;;;;1999.90;999.90;;;14.60;99.40;;;;;;4979812;28;20063;-76
2022/09/23 07:44:22;;;;;;;1999.90;999.90;;;14.70;99.60;;;;;;4984329;28;20545;-79
2022/09/23 07:46:51;;;;;;;1999.90;999.90;;;14.60;99.70;;;;;;4976880;28;20059;-79
2022/09/23 07:49:16;;;;;;;1999.90;999.90;;;14.60;99.90;;;;;;4982224;28;20132;-79
2022/09/23 07:51:45;;;;;;;1999.90;999.90;;;14.70;99.90;;;;;;4990556;28;20065;-78
2022/09/23 07:54:13;;;;;;;1999.90;999.90;;;14.70;99.90;;;;;;4978850;28;20110;-76
2022/09/23 07:56:40;;;;;;;1999.90;999.90;;;14.80;99.90;;;;;;4975630;28;20037;-76
2022/09/23 07:59:07;;;;;;;1999.90;999.90;;;14.90;99.80;;;;;;4982861;28;20029;-79
2022/09/23 08:01:34;;;;;;;1999.90;999.90;;;14.90;99.90;;;;;;4974685;28;20037;-79
2022/09/23 08:04:04;;;;;;;1999.90;999.90;;;14.90;99.60;;;;;;4986026;28;20080;-79
2022/09/23 08:06:30;;;;;;;1999.90;999.90;;;14.90;99.70;;;;;;4985754;28;20416;-79
2022/09/23 08:08:58;;;;;;;1999.90;999.90;;;15.00;99.50;;;;;;4990089;28;20033;-76
2022/09/23 08:11:25;;;;;;;1999.90;999.90;;;15.10;99.60;;;;;;4989688;28;20033;-76
2022/09/23 08:13:51;;;;;;;1999.90;999.90;;;15.20;99.30;;;;;;4979089;28;20011;-80
2022/09/23 08:16:17;;;;;;;1999.90;999.90;;;15.30;99.20;;;;;;4986659;28;20023;-76
2022/09/23 08:18:44;;;;;;;1999.90;999.90;;;15.40;98.90;;;;;;4986485;28;20038;-76
2022/09/23 08:21:09;;;;;;;1999.90;999.90;;;15.60;98.30;;;;;;4989584;28;20019;-76
2022/09/23 08:23:35;;;;;;;1999.90;999.90;;;15.60;98.30;;;;;;4988587;28;20457;-80
2022/09/23 08:26:03;;;;;;;1999.90;999.90;;;15.70;98.20;;;;;;4981385;28;20030;-76
2022/09/23 08:28:30;;;;;;;1999.90;999.90;;;15.70;98.40;;;;;;4984503;28;20030;-80
2022/09/23 08:30:55;;;;;;;1999.90;999.90;;;15.80;98.30;;;;;;4986590;28;20522;-80
2022/09/23 08:33:22;;;;;;;1999.90;999.90;;;15.90;98.10;;;;;;4989961;28;20031;-76
2022/09/23 08:35:47;;;;;;;1999.90;999.90;;;16.10;98.10;;;;;;4986138;28;20034;-76
2022/09/23 08:38:13;;;;;;;1999.90;999.90;;;16.30;97.90;;;;;;4992321;28;20084;-79
2022/09/23 08:40:42;;;;;;;1999.90;999.90;;;16.40;97.60;;;;;;4985583;28;20030;-80
2022/09/23 08:43:20;;;;;;;1999.90;999.90;;;16.80;97.30;;;;;;4983448;28;20073;-76
2022/09/23 08:45:46;;;;;;;1999.90;999.90;;;18.20;95.90;;;;;;4985799;28;20050;-76
2022/09/23 08:48:15;;;;;;;1999.90;999.90;;;20.40;92.90;;;;;;4985772;28;20072;-77
2022/09/23 08:50:44;;;;;;;1999.90;999.90;;;22.00;90.80;;;;;;4991467;28;20022;-77
2022/09/23 08:53:34;;;;;;;1999.90;999.90;;;23.00;88.80;;;;;;4982754;28;20081;-77
2022/09/23 08:56:06;;;;;;;1999.90;999.90;;;22.80;88.60;;;;;;4987494;28;20026;-81
2022/09/23 08:58:52;;;;;;;1999.90;999.90;;;23.50;87.30;;;;;;4989254;28;20022;-77
2022/09/23 09:01:30;;;;;;;1999.90;999.90;;;23.50;86.50;;;;;;4987908;28;20049;-77
2022/09/23 09:03:58;;;;;;;1999.90;999.90;;;22.70;87.60;;;;;;4993324;28;20358;-81
2022/09/23 09:06:40;;;;;;;1999.90;999.90;;;23.00;87.30;;;;;;4993503;28;20065;-81
2022/09/23 09:09:20;;;;;;;1999.90;999.90;;;22.80;86.70;;;;;;4993876;28;20026;-80
2022/09/23 09:11:49;;;;;;;1999.90;999.90;;;22.00;88.90;;;;;;4992534;28;20069;-77
2022/09/23 09:14:18;;;;;;;1999.90;999.90;;;21.70;90.10;;;;;;4989826;28;20066;-77
2022/09/23 09:17:01;;;;;;;1999.90;999.90;;;21.40;90.00;;;;;;4977351;28;20030;-81
2022/09/23 09:19:54;;;;;;;1999.90;999.90;;;21.20;90.00;;;;;;4975424;28;20413;-77
2022/09/23 09:22:36;;;;;;;1999.90;999.90;;;21.20;90.50;;;;;;4993870;28;20046;-80
2022/09/23 09:25:18;;;;;;;1999.90;999.90;;;21.70;89.00;;;;;;4992476;28;20050;-77
2022/09/23 09:27:45;;;;;;;1999.90;999.90;;;22.00;88.50;;;;;;4983774;28;20536;-77
2022/09/23 09:30:14;;;;;;;1999.90;999.90;;;22.00;87.40;;;;;;4993741;28;20474;-81
2022/09/23 09:33:01;;;;;;;1999.90;999.90;;;21.90;87.10;;;;;;4993476;28;20106;-80
2022/09/23 09:35:40;;;;;;;1999.90;999.90;;;21.90;88.00;;;;;;4973739;28;20536;-81
2022/09/23 09:38:07;;;;;;;1999.90;999.90;;;22.10;88.20;;;;;;4988679;28;20031;-80
2022/09/23 09:40:33;;;;;;;1999.90;999.90;;;22.20;87.20;;;;;;4993275;28;20050;-77
2022/09/23 09:43:03;;;;;;;1999.90;999.90;;;22.30;87.30;;;;;;4992791;28;20030;-77
2022/09/23 09:45:36;;;;;;;1999.90;999.90;;;22.10;85.50;;;;;;4993355;28;20105;-77
2022/09/23 09:48:16;;;;;;;1999.90;999.90;;;22.10;85.60;;;;;;4991281;28;20049;-81
2022/09/23 09:50:54;;;;;;;1999.90;999.90;;;22.20;85.80;;;;;;4993549;28;20057;-81
2022/09/23 09:53:29;;;;;;;1999.90;999.90;;;22.20;86.60;;;;;;4992808;28;20027;-77
2022/09/23 09:55:59;;;;;;;1999.90;999.90;;;22.20;85.80;;;;;;4993243;28;20029;-81
2022/09/23 09:58:31;;;;;;;1999.90;999.90;;;22.30;85.40;;;;;;4991355;28;20040;-80
2022/09/23 10:00:58;;;;;;;1999.90;999.90;;;22.50;85.60;;;;;;4979571;28;20541;-81
2022/09/23 10:03:36;;;;;;;1999.90;999.90;;;22.50;86.00;;;;;;4972959;28;20486;-77
2022/09/23 10:06:31;;;;;;;1999.90;999.90;;;22.60;87.70;;;;;;4991603;28;20125;-81
2022/09/23 10:09:11;;;;;;;1999.90;999.90;;;22.40;87.90;;;;;;4972956;28;20038;-81
2022/09/23 10:11:38;;;;;;;1999.90;999.90;;;22.50;86.40;;;;;;4971787;28;20534;-77
2022/09/23 10:14:17;;;;;;;1999.90;999.90;;;22.60;85.70;;;;;;4991980;28;20412;-80
2022/09/23 10:16:44;;;;;;;1999.90;999.90;;;22.20;86.60;;;;;;4987711;28;20022;-78
2022/09/23 10:19:27;;;;;;;1999.90;999.90;;;22.10;85.90;;;;;;4982924;28;20042;-77
2022/09/23 10:22:03;;;;;;;1999.90;999.90;;;22.40;85.40;;;;;;4984783;28;20101;-81
2022/09/23 10:24:37;;;;;;;1999.90;999.90;;;22.60;84.90;;;;;;4992770;28;20117;-81
2022/09/23 10:27:10;;;;;;;1999.90;999.90;;;22.90;85.60;;;;;;4979716;28;20050;-81
2022/09/23 10:29:39;;;;;;;1999.90;999.90;;;22.90;85.10;;;;;;4991332;28;20366;-81
2022/09/23 10:32:42;;;;;;;1999.90;999.90;;;23.10;84.60;;;;;;4991325;28;20034;-77
2022/09/23 10:35:08;;;;;;;1999.90;999.90;;;22.80;84.90;;;;;;4992075;28;20026;-80
2022/09/23 10:37:36;;;;;;;1999.90;999.90;;;22.90;85.80;;;;;;4990852;28;20494;-81
2022/09/23 10:46:44;;;;;;;1999.90;999.90;;;23.40;84.60;;;;;;4992562;28;20045;-81
2022/09/23 10:49:29;;;;;;;1999.90;999.90;;;23.50;84.70;;;;;;4991695;28;20445;-77
2022/09/23 10:52:04;;;;;;;1999.90;999.90;;;23.50;83.50;;;;;;4992119;28;20033;-81
2022/09/23 10:55:03;;;;;;;1999.90;999.90;;;23.40;83.40;;;;;;4990877;28;20114;-81
2022/09/23 10:57:44;;;;;;;1999.90;999.90;;;23.10;83.60;;;;;;4989676;28;20053;-77
2022/09/23 11:00:27;;;;;;;1999.90;999.90;;;23.10;84.10;;;;;;4991886;28;20027;-77
2022/09/23 11:03:11;;;;;;;1999.90;999.90;;;23.30;85.00;;;;;;4992697;28;20481;-81
2022/09/23 11:06:01;;;;;;;1999.90;999.90;;;23.60;84.00;;;;;;4991645;28;20058;-81
2022/09/23 11:08:48;;;;;;;1999.90;999.90;;;23.70;84.70;;;;;;4987979;28;20041;-81
2022/09/23 11:11:32;;;;;;;1999.90;999.90;;;23.60;84.60;;;;;;4990024;28;20026;-77
2022/09/23 11:14:24;;;;;;;1999.90;999.90;;;23.60;84.50;;;;;;4989278;28;20342;-81
2022/09/23 11:17:05;;;;;;;1999.90;999.90;;;23.40;84.80;;;;;;4988837;28;20050;-81
2022/09/23 11:20:14;;;;;;;1999.90;999.90;;;23.50;85.10;;;;;;4988321;28;20099;-80
2022/09/23 11:23:06;;;;;;;1999.90;999.90;;;23.80;83.60;;;;;;4993855;28;20445;-77
2022/09/23 11:26:07;;;;;;;1999.90;999.90;;;23.50;84.20;;;;;;4991720;28;20105;-81
2022/09/23 11:29:12;;;;;;;1999.90;999.90;;;23.90;82.00;;;;;;4986637;28;20486;-81
2022/09/23 11:31:58;;;;;;;1999.90;999.90;;;24.00;83.50;;;;;;4985145;28;20532;-81
2022/09/23 11:34:33;;;;;;;1999.90;999.90;;;24.10;85.20;;;;;;4992549;28;20092;-78
2022/09/23 11:37:20;;;;;;;1999.90;999.90;;;24.00;82.90;;;;;;4990941;28;20049;-78
2022/09/23 11:39:56;;;;;;;1999.90;999.90;;;23.80;83.10;;;;;;4984610;28;20111;-78
2022/09/23 11:42:29;;;;;;;1999.90;999.90;;;23.70;83.70;;;;;;4989355;28;20405;-78
2022/09/23 11:45:05;;;;;;;1999.90;999.90;;;23.60;83.10;;;;;;4990113;28;20037;-81
2022/09/23 11:47:41;;;;;;;1999.90;999.90;;;23.50;83.90;;;;;;4980666;28;20592;-81
2022/09/23 11:50:28;;;;;;;1999.90;999.90;;;23.60;83.00;;;;;;4990648;28;20400;-78
2022/09/23 11:53:03;;;;;;;1999.90;999.90;;;23.70;81.10;;;;;;4990862;28;20046;-78
2022/09/23 11:55:43;;;;;;;1999.90;999.90;;;23.60;82.10;;;;;;4989785;28;20034;-81
2022/09/23 11:58:32;;;;;;;1999.90;999.90;;;23.50;82.70;;;;;;4986249;28;20567;-81
2022/09/23 12:01:05;;;;;;;1999.90;999.90;;;23.40;83.60;;;;;;4990463;28;20041;-77
2022/09/23 12:04:11;;;;;;;1999.90;999.90;;;23.30;83.40;;;;;;4989235;28;20030;-81
2022/09/23 12:06:43;;;;;;;1999.90;999.90;;;23.40;84.60;;;;;;4988872;28;20485;-77
2022/09/23 12:09:32;;;;;;;;;;;23.70;83.70;;;;;;4988139;28;20177;-78
2022/09/23 12:12:07;;;;;;;1999.90;999.90;;;23.70;82.20;;;;;;4985440;28;19918;-81
2022/09/23 12:14:46;;;;;;;1999.90;999.90;;;23.50;83.50;;;;;;4990038;28;20034;-78
2022/09/23 12:17:36;;;;;;;1999.90;999.90;;;23.40;82.30;;;;;;4983926;28;20142;-78
2022/09/23 12:20:01;;;;;;;1999.90;999.90;;;23.20;82.60;;;;;;4976264;28;20393;-81
2022/09/23 12:23:05;;;;;;;1999.90;999.90;;;23.10;82.60;;;;;;4988313;28;20046;-81
2022/09/23 12:25:45;;;;;;;;;;;23.10;83.10;;;;;;5000637;28;20035;-81
2022/09/23 12:28:18;;;;;;;1999.90;999.90;;;23.10;82.70;;;;;;4983053;28;20412;-77
2022/09/23 12:30:46;;;;;;;1999.90;999.90;;;23.20;83.30;;;;;;4981801;28;20046;-81
2022/09/23 12:33:26;;;;;;;1999.90;999.90;;;23.00;82.80;;;;;;4984133;28;20027;-77
2022/09/23 12:35:53;;;;;;;1999.90;999.90;;;23.00;83.30;;;;;;4984917;28;20042;-81
2022/09/23 12:38:29;;;;;;;1999.90;999.90;;;23.10;82.60;;;;;;4988774;28;20023;-81